Time;durP1;ratioP1;P1;durP2;ratioP2;P2;SDS_P1;SDS_P2;PMS_P1;PMS_P2;Temp;Humidity;BMP_temperature;BMP_pressure;BME280_temperature;BME280_humidity;BME280_pressure;Samples;Min_cycle;Max_cycle;Signal;HPM_P1;HPM_P2
2022/05/07 00:01:50;;;;;;;;;;;;;;;20.94;46.57;102171.09;7281830;19;154294;-57
2022/05/07 00:04:17;;;;;;;;;;;;;;;20.95;46.91;102178.38;7282011;19;152067;-56
2022/05/07 00:06:44;;;;;;;;;;;;;;;20.94;46.75;102185.97;7282556;19;153301;-57
2022/05/07 00:09:11;;;;;;;;;;;;;;;20.95;46.90;102175.56;7288400;19;153253;-56
2022/05/07 00:11:38;;;;;;;;;;;;;;;20.95;47.21;102181.19;7281454;19;152544;-56
2022/05/07 00:14:04;;;;;;;;;;;;;;;20.94;47.30;102182.34;7280525;19;154568;-56
2022/05/07 00:19:08;;;;;;;;;;;;;;;20.96;47.25;102182.88;7283157;19;152878;-57
2022/05/07 00:21:35;;;;;;;;;;;;;;;20.97;47.60;102173.34;7282191;19;154046;-56
2022/05/07 00:24:03;;;;;;;;;;;;;;;21.03;47.53;102172.22;7282540;19;154094;-56
2022/05/07 00:26:29;;;;;;;;;;;;;;;20.99;47.67;102171.06;7283419;19;153675;-56
2022/05/07 00:28:56;;;;;;;;;;;;;;;21.00;47.59;102162.38;7280792;19;153260;-56
2022/05/07 00:31:23;;;;;;;;;;;;;;;20.99;47.65;102160.69;7288347;19;152312;-56
2022/05/07 00:33:50;;;;;;;;;;;;;;;20.96;47.95;102157.59;7282270;19;154504;-56
2022/05/07 00:36:17;;;;;;;;;;;;;;;20.99;48.17;102159.84;7284762;19;151794;-56
2022/05/07 00:38:43;;;;;;;;;;;;;;;21.00;48.23;102169.97;7283093;19;153306;-56
2022/05/07 00:41:11;;;;;;;;;;;;;;;20.99;47.97;102171.06;7282421;19;152580;-56
2022/05/07 00:43:40;;;;;;;;;;;;;;;20.94;48.31;102162.69;7283014;19;151885;-56
2022/05/07 00:46:08;;;;;;;;;;;;;;;20.92;48.45;102173.34;7281808;19;152548;-56
2022/05/07 00:48:35;;;;;;;;;;;;;;;20.91;48.38;102172.50;7277540;19;153565;-56
2022/05/07 00:53:39;;;;;;;;;;;;;;;20.92;48.81;102162.94;7280342;19;154366;-56
2022/05/07 00:56:07;;;;;;;;;;;;;;;20.92;48.67;102165.75;7282337;19;152369;-57
2022/05/07 00:58:34;;;;;;;;;;;;;;;20.91;48.55;102154.78;7280270;19;152751;-56
2022/05/07 01:01:01;;;;;;;;;;;;;;;20.94;49.20;102154.25;7278909;19;153996;-56
2022/05/07 01:03:28;;;;;;;;;;;;;;;21.00;48.73;102164.34;7278367;19;151737;-56
2022/05/07 01:05:55;;;;;;;;;;;;;;;20.98;48.77;102161.84;7283776;19;154632;-56
2022/05/07 01:08:22;;;;;;;;;;;;;;;20.94;49.11;102159.88;7282527;19;154211;-56
2022/05/07 01:10:49;;;;;;;;;;;;;;;20.94;48.99;102159.88;7279555;19;151968;-57
2022/05/07 01:13:16;;;;;;;;;;;;;;;20.91;49.17;102157.59;7286810;19;153432;-56
2022/05/07 01:15:43;;;;;;;;;;;;;;;20.92;49.18;102162.94;7276699;19;152229;-57
2022/05/07 01:18:11;;;;;;;;;;;;;;;20.96;49.36;102163.22;7282234;19;153713;-57
2022/05/07 01:20:38;;;;;;;;;;;;;;;20.93;49.75;102158.19;7280492;19;154049;-57
2022/05/07 01:23:05;;;;;;;;;;;;;;;20.93;49.61;102156.22;7280688;19;152266;-56
2022/05/07 01:25:32;;;;;;;;;;;;;;;20.98;49.76;102153.41;7282083;19;152328;-56
2022/05/07 01:27:59;;;;;;;;;;;;;;;21.02;49.94;102148.91;7279571;19;153841;-57
2022/05/07 01:30:26;;;;;;;;;;;;;;;21.03;49.89;102147.75;7282142;19;152106;-56
2022/05/07 01:32:53;;;;;;;;;;;;;;;21.01;49.56;102149.16;7280114;19;152759;-57
2022/05/07 01:35:22;;;;;;;;;;;;;;;20.95;49.81;102150.28;7288915;19;153081;-57
2022/05/07 01:37:49;;;;;;;;;;;;;;;20.95;49.82;102139.06;7279967;19;153263;-57
2022/05/07 01:40:16;;;;;;;;;;;;;;;20.91;49.97;102144.41;7280171;19;153327;-56
2022/05/07 01:42:42;;;;;;;;;;;;;;;20.95;50.61;102137.09;7280056;19;151750;-56
2022/05/07 01:45:09;;;;;;;;;;;;;;;21.00;50.31;102130.63;7279454;19;152061;-57
2022/05/07 01:50:13;;;;;;;;;;;;;;;20.99;50.36;102134.53;7273994;19;152246;-56
2022/05/07 01:52:40;;;;;;;;;;;;;;;21.02;50.22;102134.84;7277542;19;153187;-56
2022/05/07 01:55:09;;;;;;;;;;;;;;;21.03;50.41;102130.06;7280325;19;153485;-56
2022/05/07 01:57:36;;;;;;;;;;;;;;;21.01;50.48;102130.34;7287609;19;151936;-57
2022/05/07 02:00:03;;;;;;;;;;;;;;;21.00;50.50;102125.00;7281576;19;154146;-56
2022/05/07 02:02:30;;;;;;;;;;;;;;;20.99;50.46;102123.31;7282104;19;151611;-57
2022/05/07 02:04:57;;;;;;;;;;;;;;;20.98;50.65;102132.88;7281398;19;153548;-55
2022/05/07 02:07:24;;;;;;;;;;;;;;;21.00;50.91;102125.00;7279387;19;153232;-56
2022/05/07 02:09:51;;;;;;;;;;;;;;;21.02;50.90;102126.41;7282039;19;151759;-56
2022/05/07 02:12:18;;;;;;;;;;;;;;;21.04;51.24;102115.72;7277870;19;155163;-57
2022/05/07 02:14:45;;;;;;;;;;;;;;;21.01;50.97;102121.91;7277529;19;153948;-57
2022/05/07 02:17:11;;;;;;;;;;;;;;;21.00;50.74;102120.22;7277790;19;153182;-56
2022/05/07 02:19:38;;;;;;;;;;;;;;;20.99;50.84;102124.16;7286192;19;153416;-56
2022/05/07 02:22:05;;;;;;;;;;;;;;;20.99;51.45;102123.31;7281014;19;152002;-56
2022/05/07 02:24:32;;;;;;;;;;;;;;;21.01;51.51;102127.53;7280492;19;153364;-56
2022/05/07 02:27:00;;;;;;;;;;;;;;;20.99;51.30;102124.16;7278998;19;153714;-57
2022/05/07 02:29:26;;;;;;;;;;;;;;;20.96;51.17;102129.50;7280770;19;151809;-56
2022/05/07 02:34:31;;;;;;;;;;;;;;;21.00;51.11;102127.81;7280019;19;153443;-57
2022/05/07 02:36:58;;;;;;;;;;;;;;;20.98;51.36;102127.28;7278094;19;151687;-56
2022/05/07 02:39:24;;;;;;;;;;;;;;;20.95;51.37;102128.66;7285771;19;153504;-56
2022/05/07 02:44:28;;;;;;;;;;;;;;;20.96;51.69;102130.34;7287714;19;152695;-56
2022/05/07 02:46:55;;;;;;;;;;;;;;;20.97;51.35;102132.03;7284307;19;154087;-56
2022/05/07 02:49:22;;;;;;;;;;;;;;;20.96;51.70;102133.16;7284635;19;151967;-56
2022/05/07 02:51:49;;;;;;;;;;;;;;;21.00;51.98;102130.63;7283314;19;152990;-56
2022/05/07 02:54:16;;;;;;;;;;;;;;;21.00;51.77;102128.66;7286211;19;154128;-56
2022/05/07 02:56:43;;;;;;;;;;;;;;;20.99;51.79;102140.16;7286608;19;151686;-56
2022/05/07 02:59:09;;;;;;;;;;;;;;;20.98;51.63;102124.47;7286308;19;153778;-56
2022/05/07 03:01:36;;;;;;;;;;;;;;;20.99;51.57;102137.34;7292062;19;154275;-56
2022/05/07 03:04:03;;;;;;;;;;;;;;;21.03;51.75;102135.69;7283946;19;152900;-56
2022/05/07 03:06:30;;;;;;;;;;;;;;;21.05;51.42;102131.47;7283212;19;154007;-56
2022/05/07 03:08:57;;;;;;;;;;;;;;;21.03;51.77;102136.50;7284524;19;152130;-56
2022/05/07 03:11:24;;;;;;;;;;;;;;;21.02;51.80;102139.63;7286644;19;152953;-57
2022/05/07 03:13:51;;;;;;;;;;;;;;;21.00;52.04;102137.09;7284059;19;152553;-57
2022/05/07 03:16:18;;;;;;;;;;;;;;;21.02;51.86;102132.03;7287046;19;151874;-56
2022/05/07 03:18:44;;;;;;;;;;;;;;;21.02;51.81;102128.38;7286965;19;153072;-57
2022/05/07 03:21:11;;;;;;;;;;;;;;;21.00;51.64;102119.38;7283675;19;154238;-56
2022/05/07 03:23:38;;;;;;;;;;;;;;;20.99;52.07;102126.13;7292262;19;151685;-56
2022/05/07 03:26:05;;;;;;;;;;;;;;;20.99;52.28;102126.97;7283586;19;154289;-56
2022/05/07 03:28:32;;;;;;;;;;;;;;;21.00;52.17;102123.03;7282504;19;152333;-56
2022/05/07 03:31:00;;;;;;;;;;;;;;;21.01;52.38;102132.31;7286624;19;152665;-56
2022/05/07 03:33:27;;;;;;;;;;;;;;;21.04;52.30;102131.72;7282035;19;153466;-56
2022/05/07 03:35:54;;;;;;;;;;;;;;;21.00;52.33;102137.09;7285463;19;151810;-57
2022/05/07 03:38:22;;;;;;;;;;;;;;;21.01;52.43;102137.94;7283095;19;153304;-57
2022/05/07 03:40:49;;;;;;;;;;;;;;;20.99;52.21;102128.94;7285306;19;154680;-57
2022/05/07 03:43:16;;;;;;;;;;;;;;;20.98;52.29;102135.69;7283978;19;152414;-57
2022/05/07 03:45:43;;;;;;;;;;;;;;;20.98;52.22;102135.69;7293657;19;152597;-57
2022/05/07 03:48:10;;;;;;;;;;;;;;;20.96;52.33;102135.97;7283110;19;151637;-56
2022/05/07 03:50:37;;;;;;;;;;;;;;;20.96;52.25;102138.78;7282716;19;152695;-56
2022/05/07 03:53:34;;;;;;;;;;;;;;;20.95;52.31;102139.91;7282519;19;154465;-56
2022/05/07 03:55:51;;;;;;;;;;;;;;;20.95;52.71;102145.50;7284058;19;151879;-56
2022/05/07 03:58:18;;;;;;;;;;;;;;;20.95;52.43;102148.31;7283397;19;155235;-56
2022/05/07 04:00:45;;;;;;;;;;;;;;;20.95;52.70;102144.66;7282402;19;153386;-56
2022/05/07 04:03:12;;;;;;;;;;;;;;;20.96;52.43;102154.78;7284446;19;152111;-56
2022/05/07 04:05:39;;;;;;;;;;;;;;;20.94;52.60;102148.63;7284566;19;153860;-56
2022/05/07 04:08:06;;;;;;;;;;;;;;;20.92;52.67;102148.91;7290706;19;154572;-56
2022/05/07 04:10:33;;;;;;;;;;;;;;;20.93;52.46;102150.59;7282161;19;153388;-56
2022/05/07 04:13:00;;;;;;;;;;;;;;;20.95;52.80;102148.31;7279940;19;154228;-56
2022/05/07 04:15:27;;;;;;;;;;;;;;;20.95;52.73;102153.09;7282790;19;152373;-58
2022/05/07 04:17:54;;;;;;;;;;;;;;;20.96;52.91;102152.81;7285882;19;153270;-57
2022/05/07 04:20:22;;;;;;;;;;;;;;;20.94;52.67;102141.00;7284524;19;153929;-57
2022/05/07 04:22:49;;;;;;;;;;;;;;;20.94;52.69;102145.81;7284737;19;152014;-56
2022/05/07 04:25:16;;;;;;;;;;;;;;;20.94;52.97;102151.44;7285715;19;151680;-57
2022/05/07 04:27:43;;;;;;;;;;;;;;;20.92;52.71;102151.72;7283160;19;154397;-55
2022/05/07 04:30:10;;;;;;;;;;;;;;;20.94;52.44;102149.44;7292163;19;152023;-56
2022/05/07 04:32:37;;;;;;;;;;;;;;;20.94;52.86;102151.44;7279136;19;154321;-56
2022/05/07 04:35:05;;;;;;;;;;;;;;;20.92;52.53;102154.53;7285708;19;152217;-56
2022/05/07 04:37:32;;;;;;;;;;;;;;;20.92;52.62;102140.47;7281116;19;156015;-56
2022/05/07 04:39:59;;;;;;;;;;;;;;;20.92;52.94;102145.25;7281211;19;153489;-56
2022/05/07 04:42:26;;;;;;;;;;;;;;;20.92;52.70;102154.53;7284382;19;152199;-56
2022/05/07 04:44:53;;;;;;;;;;;;;;;20.92;52.46;102157.31;7282782;19;151827;-56
2022/05/07 04:47:20;;;;;;;;;;;;;;;20.93;52.59;102161.84;7282159;19;153941;-56
2022/05/07 04:49:47;;;;;;;;;;;;;;;20.92;52.42;102162.09;7282770;19;152447;-57
2022/05/07 04:52:14;;;;;;;;;;;;;;;20.93;52.86;102167.44;7290343;19;152726;-56
2022/05/07 04:54:41;;;;;;;;;;;;;;;20.90;53.16;102156.75;7284565;19;151873;-56
2022/05/07 04:57:12;;;;;;;;;;;;;;;20.90;53.15;102164.34;7282490;19;152065;-56
2022/05/07 04:59:39;;;;;;;;;;;;;;;20.89;52.99;102160.72;7283949;19;154406;-56
2022/05/07 05:02:06;;;;;;;;;;;;;;;20.91;53.14;102161.25;7280995;19;151812;-56
2022/05/07 05:04:33;;;;;;;;;;;;;;;20.92;52.92;102164.91;7283923;19;152067;-56
2022/05/07 05:07:00;;;;;;;;;;;;;;;20.89;52.87;102171.94;7280354;19;153879;-56
2022/05/07 05:09:27;;;;;;;;;;;;;;;20.90;53.00;102172.75;7281320;19;151561;-56
2022/05/07 05:11:54;;;;;;;;;;;;;;;20.90;53.02;102173.59;7288036;19;152500;-56
2022/05/07 05:17:00;;;;;;;;;;;;;;;20.89;52.78;102176.72;7282747;19;153561;-56
2022/05/07 05:19:28;;;;;;;;;;;;;;;20.89;52.92;102183.19;7282791;19;153390;-56
2022/05/07 05:21:54;;;;;;;;;;;;;;;20.87;52.76;102177.00;7283731;19;152049;-56
2022/05/07 05:24:21;;;;;;;;;;;;;;;20.88;52.94;102183.47;7281146;19;154393;-56
2022/05/07 05:26:48;;;;;;;;;;;;;;;20.88;52.70;102186.28;7280452;19;154951;-56
2022/05/07 05:29:15;;;;;;;;;;;;;;;20.89;52.97;102191.63;7281184;19;151768;-56
2022/05/07 05:31:42;;;;;;;;;;;;;;;20.87;53.06;102188.22;7281841;19;152906;-56
2022/05/07 05:34:09;;;;;;;;;;;;;;;20.86;53.10;102189.34;7286219;19;154023;-56
2022/05/07 05:36:36;;;;;;;;;;;;;;;20.88;53.18;102194.69;7280898;19;152700;-56
2022/05/07 05:39:05;;;;;;;;;;;;;;;20.88;53.13;102191.88;7280176;19;154072;-56
2022/05/07 05:41:32;;;;;;;;;;;;;;;20.89;52.95;102196.38;7281686;19;152433;-56
2022/05/07 05:43:59;;;;;;;;;;;;;;;20.88;52.97;102195.53;7283076;19;153815;-56
2022/05/07 05:46:27;;;;;;;;;;;;;;;20.89;53.27;102204.81;7282140;19;153973;-56
2022/05/07 05:48:54;;;;;;;;;;;;;;;20.88;52.97;102201.16;7280260;19;152174;-56
2022/05/07 05:51:21;;;;;;;;;;;;;;;20.89;53.53;102202.84;7282199;19;153108;-56
2022/05/07 05:53:48;;;;;;;;;;;;;;;20.90;53.81;102200.84;7275290;19;154289;-57
2022/05/07 05:56:15;;;;;;;;;;;;;;;20.89;53.74;102207.63;7288875;19;152331;-57
2022/05/07 05:58:42;;;;;;;;;;;;;;;20.90;53.54;102203.66;7280380;19;153797;-56
2022/05/07 06:01:09;;;;;;;;;;;;;;;20.90;54.03;102207.31;7281038;19;151656;-57
2022/05/07 06:03:36;;;;;;;;;;;;;;;20.89;54.15;102213.25;7279793;19;153486;-56
2022/05/07 06:06:03;;;;;;;;;;;;;;;20.89;53.72;102207.63;7279339;19;154373;-56
2022/05/07 06:08:30;;;;;;;;;;;;;;;20.90;53.93;102210.13;7282238;19;151927;-57
2022/05/07 06:10:57;;;;;;;;;;;;;;;20.89;53.99;102216.91;7280252;19;152707;-56
2022/05/07 06:13:25;;;;;;;;;;;;;;;20.90;54.09;102212.94;7282229;19;154304;-56
2022/05/07 06:15:52;;;;;;;;;;;;;;;20.89;53.78;102218.88;7287359;19;152322;-56
2022/05/07 06:18:19;;;;;;;;;;;;;;;20.91;54.23;102211.81;7293160;19;153593;-56
2022/05/07 06:20:47;;;;;;;;;;;;;;;20.90;54.30;102214.91;7286875;19;151887;-56
2022/05/07 06:23:15;;;;;;;;;;;;;;;20.90;54.07;102221.38;7285746;19;154781;-56
2022/05/07 06:28:18;;;;;;;;;;;;;;;20.91;53.96;102213.78;7286976;19;152170;-57
2022/05/07 06:30:45;;;;;;;;;;;;;;;20.90;54.14;102212.94;7285085;19;152208;-56
2022/05/07 06:33:12;;;;;;;;;;;;;;;20.90;54.11;102218.56;7286262;19;154325;-56
2022/05/07 06:35:39;;;;;;;;;;;;;;;20.89;54.39;102221.66;7286720;19;151537;-57
2022/05/07 06:38:06;;;;;;;;;;;;;;;20.92;53.96;102221.09;7287536;19;151944;-56
2022/05/07 06:40:33;;;;;;;;;;;;;;;20.92;54.31;102224.75;7294599;19;153517;-56
2022/05/07 06:42:59;;;;;;;;;;;;;;;20.92;54.30;102223.91;7287181;19;153841;-56
2022/05/07 06:45:26;;;;;;;;;;;;;;;20.93;54.00;102220.84;7284746;19;153565;-56
2022/05/07 06:47:53;;;;;;;;;;;;;;;20.91;54.10;102234.31;7283131;19;152039;-56
2022/05/07 06:50:20;;;;;;;;;;;;;;;20.91;54.25;102222.22;7285811;19;154291;-56
2022/05/07 06:52:47;;;;;;;;;;;;;;;20.91;54.19;102236.25;7283200;19;154459;-57
2022/05/07 06:55:14;;;;;;;;;;;;;;;20.92;54.22;102240.78;7287740;19;151794;-57
2022/05/07 06:57:42;;;;;;;;;;;;;;;20.92;54.29;102243.56;7286524;19;153660;-57
2022/05/07 07:00:28;;;;;;;;;;;;;;;20.91;54.09;102245.53;7284783;19;154324;-56
2022/05/07 07:02:55;;;;;;;;;;;;;;;20.90;54.46;102241.03;7292302;19;152172;-56
2022/05/07 07:05:22;;;;;;;;;;;;;;;20.93;54.21;102239.66;7283077;19;153204;-56
2022/05/07 07:07:49;;;;;;;;;;;;;;;20.92;54.05;102241.63;7285570;19;151929;-56
2022/05/07 07:10:15;;;;;;;;;;;;;;;20.91;54.52;102239.06;7287603;19;152595;-57
2022/05/07 07:12:42;;;;;;;;;;;;;;;20.91;54.11;102247.50;7283696;19;155711;-56
2022/05/07 07:15:09;;;;;;;;;;;;;;;20.92;54.24;102246.38;7283284;19;152043;-56
2022/05/07 07:17:36;;;;;;;;;;;;;;;20.92;54.27;102246.38;7287442;19;153112;-56
2022/05/07 07:20:03;;;;;;;;;;;;;;;20.93;54.46;102251.75;7283919;19;153687;-56
2022/05/07 07:22:30;;;;;;;;;;;;;;;20.91;54.35;102242.72;7291488;19;151646;-56
2022/05/07 07:24:57;;;;;;;;;;;;;;;20.91;54.40;102250.31;7283327;19;152134;-57
2022/05/07 07:27:26;;;;;;;;;;;;;;;20.91;54.21;102253.13;7284474;19;152151;-57
2022/05/07 07:29:53;;;;;;;;;;;;;;;20.91;54.13;102245.53;7285335;19;153377;-56
2022/05/07 07:32:20;;;;;;;;;;;;;;;20.92;54.16;102243.56;7281769;19;156471;-56
2022/05/07 07:34:47;;;;;;;;;;;;;;;20.91;54.50;102253.13;7282195;19;151793;-57
2022/05/07 07:37:15;;;;;;;;;;;;;;;20.92;54.09;102257.63;7286373;19;153676;-56
2022/05/07 07:39:43;;;;;;;;;;;;;;;20.93;54.57;102260.16;7282906;19;156302;-56
2022/05/07 07:42:10;;;;;;;;;;;;;;;20.95;54.68;102263.53;7284638;19;152139;-56
2022/05/07 07:44:37;;;;;;;;;;;;;;;20.95;54.94;102265.47;7293294;19;153634;-55
2022/05/07 07:49:41;;;;;;;;;;;;;;;20.97;54.79;102268.88;7283891;19;154038;-56
2022/05/07 07:52:08;;;;;;;;;;;;;;;20.95;54.89;102269.16;7284289;19;153559;-56
2022/05/07 07:54:36;;;;;;;;;;;;;;;20.95;54.61;102279.53;7284344;19;151802;-56
2022/05/07 07:57:03;;;;;;;;;;;;;;;20.94;54.33;102267.44;7285528;19;153368;-70
2022/05/07 07:59:30;;;;;;;;;;;;;;;21.00;54.28;102279.53;7281547;19;152237;-56
2022/05/07 08:01:56;;;;;;;;;;;;;;;20.99;54.47;102280.66;7285949;19;152102;-57
2022/05/07 08:04:25;;;;;;;;;;;;;;;21.00;54.54;102285.16;7283199;19;152927;-56
2022/05/07 08:12:07;;;;;;;;;;;;;;;21.11;54.55;102282.09;7281057;19;154656;-56
2022/05/07 08:14:34;;;;;;;;;;;;;;;21.13;55.09;102276.22;7282610;19;153348;-56
2022/05/07 08:17:07;;;;;;;;;;;;;;;21.18;55.22;102281.84;7282680;19;154434;-56
2022/05/07 08:19:34;;;;;;;;;;;;;;;21.23;55.21;102276.22;7265441;19;153883;-56
2022/05/07 08:22:02;;;;;;;;;;;;;;;21.28;54.98;102279.88;7277481;19;152221;-57
2022/05/07 08:24:29;;;;;;;;;;;;;;;21.35;54.81;102288.03;7285798;19;152498;-57
2022/05/07 08:26:56;;;;;;;;;;;;;;;21.43;54.87;102283.81;7271609;19;153515;-57
2022/05/07 08:29:23;;;;;;;;;;;;;;;21.49;54.20;102275.09;7287153;19;152519;-57
2022/05/07 08:31:50;;;;;;;;;;;;;;;21.58;54.06;102278.16;7280342;19;153328;-56
2022/05/07 08:34:17;;;;;;;;;;;;;;;21.65;53.50;102279.56;7280010;19;151876;-57
2022/05/07 08:36:44;;;;;;;;;;;;;;;21.73;53.46;102283.78;7276623;19;156138;-57
2022/05/07 08:39:11;;;;;;;;;;;;;;;21.81;52.73;102280.38;7278079;19;153707;-56
2022/05/07 08:41:38;;;;;;;;;;;;;;;21.88;52.73;102288.53;7280549;19;152134;-57
2022/05/07 08:44:06;;;;;;;;;;;;;;;21.95;52.51;102281.50;7280042;19;154627;-56
2022/05/07 08:46:33;;;;;;;;;;;;;;;22.03;52.29;102282.91;7280063;19;154476;-57
2022/05/07 08:49:00;;;;;;;;;;;;;;;22.05;52.04;102284.28;7281204;19;152089;-57
2022/05/07 08:51:27;;;;;;;;;;;;;;;22.10;51.52;102286.25;7286164;19;153592;-56
2022/05/07 08:53:54;;;;;;;;;;;;;;;22.15;51.40;102277.78;7278876;19;152769;-56
2022/05/07 08:56:22;;;;;;;;;;;;;;;22.18;51.09;102289.31;7280361;19;153508;-57
2022/05/07 08:58:50;;;;;;;;;;;;;;;22.22;50.41;102280.28;7281212;19;152168;-57
2022/05/07 09:01:17;;;;;;;;;;;;;;;22.25;50.66;102283.38;7281301;19;151696;-57
2022/05/07 09:03:45;;;;;;;;;;;;;;;22.30;49.97;102274.91;7282191;19;153233;-57
2022/05/07 09:06:19;;;;;;;;;;;;;;;22.31;50.33;102278.56;7281012;19;153485;-57
2022/05/07 09:08:47;;;;;;;;;;;;;;;22.31;50.00;102270.94;7284068;19;151646;-57
2022/05/07 09:11:16;;;;;;;;;;;;;;;22.34;49.50;102278.00;7284293;19;154046;-57
2022/05/07 09:13:45;;;;;;;;;;;;;;;22.26;49.42;102268.16;7285596;19;152336;-56
2022/05/07 09:16:12;;;;;;;;;;;;;;;22.28;49.52;102279.97;7280167;19;153525;-57
2022/05/07 09:18:45;;;;;;;;;;;;;;;22.29;49.22;102281.69;7279762;19;153715;-56
2022/05/07 09:23:56;;;;;;;;;;;;;;;22.29;48.42;102281.69;7282229;19;153474;-57
2022/05/07 09:26:24;;;;;;;;;;;;;;;22.23;48.34;102277.19;7278637;19;152871;-57
2022/05/07 09:28:51;;;;;;;;;;;;;;;22.21;48.42;102282.28;7282419;19;151944;-57
2022/05/07 09:31:28;;;;;;;;;;;;;;;22.24;47.99;102281.69;7281420;19;152221;-57
2022/05/07 09:33:55;;;;;;;;;;;;;;;22.26;47.84;102285.03;7288467;19;153278;-57
2022/05/07 09:36:23;;;;;;;;;;;;;;;22.27;47.71;102274.63;7282336;19;152750;-57
2022/05/07 09:38:59;;;;;;;;;;;;;;;22.34;47.79;102290.09;7279968;19;152170;-57
2022/05/07 09:41:26;;;;;;;;;;;;;;;22.36;47.93;102286.97;7280396;19;151925;-57
2022/05/07 09:43:53;;;;;;;;;;;;;;;22.35;48.03;102280.50;7280746;19;153477;-57
2022/05/07 09:46:21;;;;;;;;;;;;;;;22.40;47.62;102280.47;7278620;19;153286;-57
2022/05/07 09:48:48;;;;;;;;;;;;;;;22.34;48.22;102286.44;7277091;19;152230;-57
2022/05/07 09:51:16;;;;;;;;;;;;;;;22.28;48.47;102294.06;7283161;19;152871;-57
2022/05/07 09:58:56;;;;;;;;;;;;;;;22.24;48.48;102297.75;7281692;19;153098;-56
2022/05/07 10:01:32;;;;;;;;;;;;;;;22.19;48.38;102298.59;7282570;19;151707;-57
2022/05/07 10:04:06;;;;;;;;;;;;;;;22.21;48.55;102304.81;7278740;19;153698;-57
2022/05/07 10:06:42;;;;;;;;;;;;;;;22.21;48.15;102296.34;7278883;19;152971;-57
2022/05/07 10:09:17;;;;;;;;;;;;;;;22.22;48.71;102294.34;7279940;19;152312;-57
2022/05/07 10:11:50;;;;;;;;;;;;;;;22.23;48.39;102302.53;7278981;19;153667;-57
2022/05/07 10:14:27;;;;;;;;;;;;;;;22.30;48.65;102305.03;7275953;19;154754;-58
2022/05/07 10:16:58;;;;;;;;;;;;;;;22.17;49.06;102303.66;7279748;19;152158;-56
2022/05/07 10:19:33;;;;;;;;;;;;;;;22.27;48.92;102309.25;7287679;19;152985;-56
2022/05/07 10:22:00;;;;;;;;;;;;;;;22.24;48.72;102312.66;7280570;19;152259;-56
2022/05/07 10:24:27;;;;;;;;;;;;;;;22.21;48.60;102318.88;7280571;19;152672;-56
2022/05/07 10:26:56;;;;;;;;;;;;;;;22.24;48.97;102325.91;7280538;19;153646;-56
2022/05/07 10:29:24;;;;;;;;;;;;;;;22.22;48.69;102325.31;7278357;19;151945;-56
2022/05/07 10:32:00;;;;;;;;;;;;;;;22.22;48.73;102322.50;7279488;19;154431;-56
2022/05/07 10:34:27;;;;;;;;;;;;;;;22.19;48.70;102323.94;7276848;19;153327;-56
2022/05/07 10:37:04;;;;;;;;;;;;;;;22.21;48.89;102323.66;7259935;19;153160;-56
2022/05/07 10:39:31;;;;;;;;;;;;;;;22.17;49.06;102324.22;7272447;19;153546;-55
2022/05/07 10:42:01;;;;;;;;;;;;;;;22.16;48.90;102322.56;7283328;19;154075;-56
2022/05/07 10:44:30;;;;;;;;;;;;;;;22.17;48.80;102327.03;7278508;19;152701;-55
2022/05/07 10:47:07;;;;;;;;;;;;;;;22.17;48.74;102331.81;7276182;19;154106;-56
2022/05/07 10:49:35;;;;;;;;;;;;;;;22.15;48.79;102339.72;7278813;19;152075;-56
2022/05/07 10:52:02;;;;;;;;;;;;;;;22.15;48.79;102332.13;7278650;19;152010;-56
2022/05/07 10:54:29;;;;;;;;;;;;;;;22.10;48.76;102334.94;7275453;19;154242;-56
2022/05/07 10:56:57;;;;;;;;;;;;;;;22.08;48.78;102333.53;7275758;19;152041;-56
2022/05/07 10:59:26;;;;;;;;;;;;;;;22.06;48.83;102330.16;7280794;19;152911;-55
2022/05/07 11:02:02;;;;;;;;;;;;;;;21.95;49.96;102334.13;7280487;19;154112;-56
2022/05/07 11:04:29;;;;;;;;;;;;;;;21.98;49.43;102336.38;7291381;19;151874;-56
2022/05/07 11:06:56;;;;;;;;;;;;;;;22.01;49.48;102335.81;7282773;19;154047;-57
2022/05/07 11:09:24;;;;;;;;;;;;;;;22.01;49.68;102338.63;7284550;19;151835;-56
2022/05/07 11:11:53;;;;;;;;;;;;;;;21.97;49.35;102338.34;7283752;19;153399;-56
2022/05/07 11:14:23;;;;;;;;;;;;;;;21.98;49.44;102337.25;7281048;19;154306;-56
2022/05/07 11:16:51;;;;;;;;;;;;;;;21.99;49.79;102335.25;7286124;19;151704;-58
2022/05/07 11:19:27;;;;;;;;;;;;;;;21.99;49.50;102333.28;7285548;19;151687;-56
2022/05/07 11:21:55;;;;;;;;;;;;;;;22.02;49.37;102340.31;7281548;19;152840;-56
2022/05/07 11:24:22;;;;;;;;;;;;;;;21.98;49.50;102331.59;7290721;19;152217;-56
2022/05/07 11:26:50;;;;;;;;;;;;;;;22.03;49.05;102331.56;7284951;19;152529;-57
2022/05/07 11:29:17;;;;;;;;;;;;;;;22.02;49.11;102329.91;7284695;19;152163;-56
2022/05/07 11:31:53;;;;;;;;;;;;;;;22.00;49.32;102331.31;7283804;19;154075;-56
2022/05/07 11:34:27;;;;;;;;;;;;;;;21.96;49.12;102333.84;7284425;19;153658;-57
2022/05/07 11:36:54;;;;;;;;;;;;;;;21.96;49.01;102333.00;7283812;19;151901;-56
2022/05/07 11:39:21;;;;;;;;;;;;;;;21.92;49.30;102341.16;7286105;19;153005;-56
2022/05/07 11:41:53;;;;;;;;;;;;;;;21.96;49.29;102342.28;7282938;19;153450;-56
2022/05/07 11:47:04;;;;;;;;;;;;;;;21.87;49.42;102337.50;7290873;19;152836;-56
2022/05/07 11:49:35;;;;;;;;;;;;;;;21.86;49.61;102342.28;7284729;19;153119;-56
2022/05/07 11:52:11;;;;;;;;;;;;;;;21.84;49.60;102338.06;7283958;19;152833;-56
2022/05/07 11:54:47;;;;;;;;;;;;;;;21.84;49.18;102341.72;7281571;19;153341;-56
2022/05/07 11:57:14;;;;;;;;;;;;;;;21.83;49.11;102334.41;7283947;19;152016;-57
2022/05/07 11:59:46;;;;;;;;;;;;;;;21.81;49.25;102332.97;7285659;19;152846;-56
2022/05/07 12:02:13;;;;;;;;;;;;;;;21.81;49.61;102333.84;7283934;19;153349;-56
2022/05/07 12:04:40;;;;;;;;;;;;;;;21.80;49.33;102336.94;7285866;19;151856;-55
2022/05/07 12:07:10;;;;;;;;;;;;;;;21.79;49.62;102338.91;7285054;19;153151;-56
2022/05/07 12:09:37;;;;;;;;;;;;;;;21.78;49.57;102342.84;7288035;19;154184;-56
2022/05/07 12:12:05;;;;;;;;;;;;;;;21.78;49.15;102342.00;7283093;19;152805;-56
2022/05/07 12:14:32;;;;;;;;;;;;;;;21.78;49.41;102344.81;7281876;19;154410;-56
2022/05/07 12:19:36;;;;;;;;;;;;;;;21.75;49.59;102351.88;7282917;19;152552;-56
2022/05/07 12:29:51;;;;;;;;;;;;;;;21.77;49.14;102345.94;7282963;19;153501;-56
2022/05/07 12:32:19;;;;;;;;;;;;;;;21.78;49.34;102348.47;7292065;19;151833;-56
2022/05/07 12:34:47;;;;;;;;;;;;;;;21.83;48.69;102342.00;7280849;19;153452;-56
2022/05/07 12:37:13;;;;;;;;;;;;;;;21.85;49.00;102340.56;7282301;19;151915;-56
2022/05/07 12:39:40;;;;;;;;;;;;;;;21.88;48.75;102342.84;7284942;19;153822;-56
2022/05/07 12:42:08;;;;;;;;;;;;;;;21.87;49.06;102337.50;7282746;19;154263;-55
2022/05/07 12:44:35;;;;;;;;;;;;;;;21.85;48.83;102336.94;7282596;19;151872;-56
2022/05/07 12:47:03;;;;;;;;;;;;;;;21.83;48.93;102336.38;7281257;19;153343;-57
2022/05/07 12:49:30;;;;;;;;;;;;;;;21.83;48.63;102331.59;7279687;19;152014;-56
2022/05/07 12:51:56;;;;;;;;;;;;;;;21.85;48.79;102342.56;7281670;19;151774;-56
2022/05/07 12:54:25;;;;;;;;;;;;;;;21.89;48.53;102347.34;7290536;19;153719;-56
2022/05/07 12:56:53;;;;;;;;;;;;;;;21.90;48.46;102342.53;7281552;19;151734;-56
2022/05/07 12:59:21;;;;;;;;;;;;;;;21.89;48.62;102350.16;7281173;19;153436;-56
2022/05/07 13:01:47;;;;;;;;;;;;;;;21.88;48.47;102342.00;7283015;19;154025;-56
2022/05/07 13:04:17;;;;;;;;;;;;;;;21.89;48.75;102349.31;7284793;19;152008;-56
2022/05/07 13:06:45;;;;;;;;;;;;;;;21.88;48.95;102353.25;7283086;19;152697;-56
2022/05/07 13:09:12;;;;;;;;;;;;;;;21.86;48.98;102347.06;7277328;19;153747;-56
2022/05/07 13:11:39;;;;;;;;;;;;;;;21.86;48.90;102349.88;7283226;19;153809;-56
2022/05/07 13:14:06;;;;;;;;;;;;;;;21.85;48.93;102351.03;7281997;19;152880;-56
2022/05/07 13:16:35;;;;;;;;;;;;;;;21.84;48.79;102349.31;7288090;19;154256;-56
2022/05/07 13:19:02;;;;;;;;;;;;;;;21.85;48.87;102351.03;7281935;19;153279;-56